Time;durP1;ratioP1;P1;durP2;ratioP2;P2;SDS_P1;SDS_P2;PMS_P1;PMS_P2;Temp;Humidity;BMP_temperature;BMP_pressure;BME280_temperature;BME280_humidity;BME280_pressure;Samples;Min_cycle;Max_cycle;Signal;HPM_P1;HPM_P2
2021/12/05 00:22:49;;;;;;;50.78;20.35;;;4.40;99.90;;;;;;2114193;67;20242;-67
2021/12/05 00:25:33;;;;;;;46.42;19.33;;;4.40;99.90;;;;;;2110454;67;20199;-67
2021/12/05 00:40:27;;;;;;;32.70;15.23;;;4.30;99.90;;;;;;2090662;68;20783;-67
2021/12/05 01:01:00;;;;;;;25.17;12.93;;;4.20;99.90;;;;;;2076645;68;20626;-67
2021/12/05 01:15:05;;;;;;;23.48;10.57;;;4.00;99.90;;;;;;2076073;69;20245;-67
2021/12/05 01:18:05;;;;;;;18.30;10.65;;;4.10;99.90;;;;;;2081202;68;20700;-70
2021/12/05 01:20:56;;;;;;;21.73;10.95;;;4.00;99.90;;;;;;2096614;68;20410;-68
2021/12/05 01:29:50;;;;;;;18.30;11.15;;;4.00;99.90;;;;;;2097108;68;20205;-67
2021/12/05 01:33:01;;;;;;;17.17;9.40;;;4.10;99.90;;;;;;2089029;68;20354;-68
2021/12/05 01:47:54;;;;;;;17.48;10.32;;;4.00;99.90;;;;;;2117999;67;20322;-68
2021/12/05 01:53:51;;;;;;;20.45;11.68;;;3.90;99.90;;;;;;2103765;67;20432;-67
2021/12/05 01:59:27;;;;;;;23.45;10.40;;;3.90;99.90;;;;;;2110680;67;20170;-68
2021/12/05 02:29:57;;;;;;;19.20;11.75;;;3.90;99.90;;;;;;2107992;67;20318;-68
2021/12/05 02:41:44;;;;;;;18.90;11.05;;;3.90;99.90;;;;;;2108830;67;20233;-69
2021/12/05 02:44:42;;;;;;;20.83;11.65;;;3.90;99.90;;;;;;2100801;67;20828;-67
2021/12/05 02:47:29;;;;;;;21.02;11.90;;;3.90;99.90;;;;;;2104248;67;20170;-66
2021/12/05 02:50:13;;;;;;;20.98;11.18;;;3.90;99.90;;;;;;2114011;67;20322;-69
2021/12/05 02:52:57;;;;;;;23.83;12.38;;;3.90;99.90;;;;;;2121199;67;20247;-67
2021/12/05 02:55:42;;;;;;;20.77;11.90;;;3.90;99.90;;;;;;2116732;67;20658;-67
2021/12/05 02:58:42;;;;;;;23.08;12.80;;;3.90;99.90;;;;;;2118140;67;20176;-67
2021/12/05 03:01:37;;;;;;;25.15;13.02;;;3.90;99.90;;;;;;2123460;67;20199;-68
2021/12/05 03:04:18;;;;;;;17.30;11.07;;;4.00;99.90;;;;;;2124677;67;20337;-68
2021/12/05 03:07:05;;;;;;;21.50;11.55;;;3.90;99.90;;;;;;2113198;67;20657;-68
2021/12/05 03:09:46;;;;;;;20.08;10.85;;;4.00;99.90;;;;;;2108482;67;20758;-68
2021/12/05 03:12:33;;;;;;;21.85;11.13;;;4.00;99.90;;;;;;2110743;67;20328;-67
2021/12/05 03:15:20;;;;;;;19.77;11.40;;;3.90;99.90;;;;;;2097025;67;20216;-67
2021/12/05 03:18:05;;;;;;;17.42;10.40;;;4.10;99.90;;;;;;2094403;68;20419;-68
2021/12/05 03:20:47;;;;;;;18.48;11.02;;;3.90;99.90;;;;;;2104759;67;20413;-67
2021/12/05 03:23:28;;;;;;;17.30;10.77;;;3.90;99.90;;;;;;2110752;67;20383;-67
2021/12/05 03:26:12;;;;;;;19.10;11.13;;;3.90;99.90;;;;;;2110327;67;20279;-68
2021/12/05 03:28:56;;;;;;;19.27;11.57;;;3.90;99.90;;;;;;2106595;67;20260;-69
2021/12/05 03:31:41;;;;;;;19.75;10.20;;;3.90;99.90;;;;;;2097848;68;20745;-69
2021/12/05 03:34:24;;;;;;;23.35;12.27;;;3.90;99.90;;;;;;2090008;68;20202;-67
2021/12/05 03:37:08;;;;;;;19.52;11.68;;;3.90;99.90;;;;;;2098295;67;20178;-67
2021/12/05 03:39:49;;;;;;;22.27;11.63;;;3.90;99.90;;;;;;2122726;67;20916;-67
2021/12/05 03:42:31;;;;;;;19.80;12.15;;;3.90;99.90;;;;;;2118185;67;20356;-67
2021/12/05 03:45:17;;;;;;;22.25;11.82;;;3.80;99.90;;;;;;2108166;67;20372;-68
2021/12/05 03:48:01;;;;;;;21.52;11.90;;;3.80;99.90;;;;;;2092732;68;20365;-67
2021/12/05 03:50:47;;;;;;;16.98;12.52;;;3.80;99.90;;;;;;2096316;68;20187;-68
2021/12/05 03:53:29;;;;;;;17.73;11.98;;;3.80;99.90;;;;;;2103385;67;20166;-67
2021/12/05 03:56:11;;;;;;;24.30;13.65;;;3.70;99.90;;;;;;2110857;67;20338;-67
2021/12/05 03:58:55;;;;;;;30.15;13.50;;;3.70;99.90;;;;;;2119359;67;20341;-68
2021/12/05 04:01:40;;;;;;;20.30;12.57;;;3.70;99.90;;;;;;2116723;67;20386;-67
2021/12/05 04:04:21;;;;;;;18.70;12.52;;;3.70;99.90;;;;;;2111761;67;20177;-68
2021/12/05 04:07:05;;;;;;;22.60;12.88;;;3.70;99.90;;;;;;2114115;67;20347;-67
2021/12/05 04:09:51;;;;;;;23.50;13.98;;;3.70;99.90;;;;;;2111230;67;20241;-68
2021/12/05 04:12:36;;;;;;;;;;;3.70;99.90;;;;;;2115316;67;20224;-68
2021/12/05 04:15:23;;;;;;;26.38;14.10;;;3.70;99.90;;;;;;2104258;67;20188;-68
2021/12/05 04:18:07;;;;;;;24.83;14.02;;;3.70;99.90;;;;;;2102434;67;20682;-68
2021/12/05 04:20:49;;;;;;;25.30;14.65;;;3.80;99.90;;;;;;2107214;67;20350;-67
2021/12/05 04:23:31;;;;;;;26.25;15.35;;;3.60;99.90;;;;;;2096065;68;20190;-67
2021/12/05 04:26:13;;;;;;;29.00;14.55;;;3.60;99.90;;;;;;2104566;67;20198;-67
2021/12/05 04:28:54;;;;;;;23.95;14.35;;;3.70;99.90;;;;;;2104083;67;20265;-68
2021/12/05 04:31:40;;;;;;;24.40;15.48;;;3.60;99.90;;;;;;2109778;67;20277;-68
2021/12/05 04:34:24;;;;;;;26.42;15.43;;;3.50;99.90;;;;;;2124341;67;20817;-69
2021/12/05 04:37:05;;;;;;;25.77;15.57;;;3.50;99.90;;;;;;2117226;67;20747;-68
2021/12/05 04:39:47;;;;;;;28.05;15.50;;;3.40;99.90;;;;;;2118211;67;20192;-66
2021/12/05 04:42:30;;;;;;;27.23;16.35;;;3.40;99.90;;;;;;2114771;67;20188;-67
2021/12/05 04:45:27;;;;;;;28.85;16.67;;;3.40;99.90;;;;;;2116486;67;20899;-68
2021/12/05 04:48:13;;;;;;;33.90;17.67;;;3.30;99.90;;;;;;2111394;67;20187;-68
2021/12/05 04:50:57;;;;;;;;;;;3.40;99.90;;;;;;2110030;67;20339;-68
2021/12/05 04:53:42;;;;;;;27.20;15.93;;;3.30;99.90;;;;;;2096766;68;20129;-67
2021/12/05 04:56:25;;;;;;;32.75;18.98;;;3.30;99.90;;;;;;2086385;68;20311;-67
2021/12/05 04:59:13;;;;;;;37.00;19.45;;;3.40;99.90;;;;;;2082876;68;20996;-68
2021/12/05 05:01:59;;;;;;;36.47;18.35;;;3.40;99.90;;;;;;2082523;68;20253;-68
2021/12/05 05:04:45;;;;;;;32.75;17.73;;;3.40;99.90;;;;;;2101211;67;20813;-67
2021/12/05 05:07:28;;;;;;;31.90;18.50;;;3.50;99.90;;;;;;2103284;67;20570;-69
2021/12/05 05:10:22;;;;;;;31.00;17.33;;;3.50;99.90;;;;;;2113522;67;20890;-68
2021/12/05 05:13:05;;;;;;;31.38;17.08;;;3.50;99.90;;;;;;2117986;67;20177;-68
2021/12/05 05:15:49;;;;;;;31.20;17.45;;;3.50;99.90;;;;;;2118250;67;20710;-67
2021/12/05 05:18:46;;;;;;;33.10;17.63;;;3.50;99.90;;;;;;2123980;67;20365;-68
2021/12/05 05:21:40;;;;;;;33.60;17.48;;;3.50;99.90;;;;;;2126945;67;20200;-67
2021/12/05 05:25:06;;;;;;;32.80;16.38;;;3.50;99.90;;;;;;2127520;67;20267;-68
2021/12/05 05:39:03;;;;;;;29.77;17.45;;;3.40;99.90;;;;;;2125090;67;20235;-68
2021/12/05 05:40:07;;;;;;;25.23;15.60;;;3.50;99.90;;;;;;2110975;67;20759;-66
2021/12/05 05:46:05;;;;;;;32.78;17.55;;;3.50;99.90;;;;;;2105476;67;20809;-68
2021/12/05 05:48:57;;;;;;;27.30;15.45;;;3.10;99.90;;;;;;2092342;68;20698;-67
2021/12/05 05:51:39;;;;;;;23.52;13.90;;;3.60;99.90;;;;;;2087281;68;20402;-67
2021/12/05 05:54:21;;;;;;;30.83;16.10;;;3.60;99.90;;;;;;2084800;68;20309;-67
2021/12/05 05:57:15;;;;;;;25.08;13.82;;;3.80;99.90;;;;;;2085082;68;20273;-68
2021/12/05 06:00:14;;;;;;;25.00;12.98;;;3.60;99.90;;;;;;2081197;68;20228;-68
2021/12/05 06:05:57;;;;;;;24.52;11.93;;;3.60;99.90;;;;;;2081133;68;20188;-67
2021/12/05 06:08:40;;;;;;;23.52;12.60;;;3.60;99.90;;;;;;2079373;68;20289;-68
2021/12/05 06:11:21;;;;;;;26.67;13.15;;;3.50;99.90;;;;;;2091364;68;20262;-66
2021/12/05 06:14:03;;;;;;;21.45;12.32;;;3.50;99.90;;;;;;2089971;68;20179;-67
2021/12/05 06:16:45;;;;;;;26.10;12.57;;;3.50;99.90;;;;;;2073666;68;20247;-67
2021/12/05 06:19:26;;;;;;;21.23;11.95;;;3.50;99.90;;;;;;2070191;69;20826;-67
2021/12/05 06:22:08;;;;;;;22.45;12.13;;;3.50;99.90;;;;;;2073907;68;20727;-67
2021/12/05 06:24:51;;;;;;;26.98;12.57;;;3.50;99.90;;;;;;2076260;69;20409;-67
2021/12/05 06:27:33;;;;;;;19.80;11.05;;;3.50;99.90;;;;;;2086403;68;20391;-67
2021/12/05 06:30:20;;;;;;;18.38;11.15;;;3.40;99.90;;;;;;2099415;68;20804;-67
2021/12/05 06:48:07;;;;;;;17.17;8.90;;;3.30;99.90;;;;;;2088785;68;20380;-67
2021/12/05 06:50:49;;;;;;;23.08;10.70;;;3.40;99.90;;;;;;2100286;67;20182;-67
2021/12/05 06:53:44;;;;;;;16.08;9.25;;;3.20;99.90;;;;;;2105538;67;22040;-69
2021/12/05 06:56:18;;;;;;;22.92;9.48;;;3.20;99.90;;;;;;2095549;67;20243;-68
2021/12/05 06:58:53;;;;;;;22.25;9.00;;;3.20;99.90;;;;;;2097016;68;20273;-68
2021/12/05 07:01:27;;;;;;;16.67;9.65;;;3.20;99.90;;;;;;2104363;67;20214;-68
2021/12/05 07:04:05;;;;;;;22.70;9.63;;;3.10;99.90;;;;;;2111235;67;20206;-68
2021/12/05 07:06:42;;;;;;;19.95;10.20;;;3.10;99.90;;;;;;2131388;67;20305;-68
2021/12/05 07:09:20;;;;;;;18.75;9.70;;;3.10;99.90;;;;;;2132062;67;20430;-67
2021/12/05 07:14:57;;;;;;;17.17;9.75;;;3.20;99.90;;;;;;2153619;66;20306;-68
2021/12/05 07:23:25;;;;;;;18.75;9.15;;;3.20;99.90;;;;;;2165875;65;20071;-68
2021/12/05 07:26:32;;;;;;;24.88;9.98;;;3.70;99.90;;;;;;2181609;65;20654;-68
2021/12/05 07:41:30;;;;;;;24.20;9.98;;;3.30;99.90;;;;;;2168784;65;20184;-68
2021/12/05 07:44:23;;;;;;;17.25;8.43;;;3.30;99.90;;;;;;2168325;65;20191;-68
2021/12/05 07:47:19;;;;;;;18.00;8.70;;;3.30;99.90;;;;;;2154457;66;20185;-68
2021/12/05 07:49:59;;;;;;;21.55;10.00;;;3.40;99.90;;;;;;2154710;66;20712;-67
2021/12/05 07:52:41;;;;;;;18.13;9.00;;;3.30;99.90;;;;;;2154585;66;20201;-68
2021/12/05 07:55:38;;;;;;;16.77;9.70;;;3.40;99.90;;;;;;2143056;66;20194;-67
2021/12/05 08:16:27;;;;;;;18.63;8.65;;;3.50;99.90;;;;;;2120681;67;20260;-68
2021/12/05 08:19:13;;;;;;;22.42;9.68;;;3.60;99.90;;;;;;2132964;67;20280;-68
2021/12/05 08:21:57;;;;;;;22.30;10.20;;;3.50;99.90;;;;;;2132715;67;20783;-67
2021/12/05 08:24:41;;;;;;;18.40;10.20;;;3.50;99.90;;;;;;2127145;67;20235;-68
2021/12/05 08:27:23;;;;;;;19.00;8.82;;;3.60;99.90;;;;;;2117203;67;20324;-68
2021/12/05 08:30:10;;;;;;;17.55;9.10;;;3.50;99.90;;;;;;2106472;67;20262;-67
2021/12/05 09:21:05;;;;;;;19.90;10.65;;;4.50;99.90;;;;;;2096885;68;20389;-67
2021/12/05 09:24:05;;;;;;;25.15;10.68;;;4.60;99.90;;;;;;2093026;68;20235;-68
2021/12/05 10:10:44;;;;;;;17.67;10.57;;;4.40;99.90;;;;;;2097098;68;20328;-67
2021/12/05 10:37:45;;;;;;;15.93;11.13;;;4.60;99.90;;;;;;2124782;67;20243;-70
2021/12/05 10:40:55;;;;;;;20.92;12.07;;;4.50;99.90;;;;;;2110281;67;20810;-68
2021/12/05 10:43:39;;;;;;;20.85;12.07;;;4.50;99.90;;;;;;2118258;67;20277;-69
2021/12/05 10:46:26;;;;;;;23.02;11.57;;;4.50;99.90;;;;;;2111849;67;20261;-69
2021/12/05 10:49:18;;;;;;;22.75;12.65;;;4.60;99.90;;;;;;2120017;67;20387;-69
2021/12/05 10:52:01;;;;;;;22.55;12.55;;;4.60;99.90;;;;;;2116051;67;20265;-70
2021/12/05 10:54:44;;;;;;;24.73;13.65;;;4.70;99.90;;;;;;2117837;67;20338;-70
2021/12/05 10:57:31;;;;;;;22.65;13.32;;;4.60;99.90;;;;;;2117065;67;20893;-70
2021/12/05 11:00:13;;;;;;;22.40;12.70;;;4.60;99.90;;;;;;2110205;67;20229;-68
2021/12/05 11:03:16;;;;;;;18.50;11.90;;;4.60;99.90;;;;;;2108446;67;20201;-69
2021/12/05 11:06:01;;;;;;;18.92;11.95;;;4.70;99.90;;;;;;2110279;67;20642;-69
2021/12/05 11:08:43;;;;;;;20.48;11.85;;;4.70;99.90;;;;;;2116446;67;20229;-68
2021/12/05 11:11:27;;;;;;;29.80;13.38;;;4.70;99.90;;;;;;2113033;67;20267;-68
2021/12/05 11:14:34;;;;;;;20.60;12.13;;;4.70;99.90;;;;;;2114911;67;20488;-69
2021/12/05 11:17:31;;;;;;;21.30;11.55;;;4.80;99.90;;;;;;2103631;68;20256;-69
2021/12/05 11:20:28;;;;;;;20.75;11.55;;;4.80;99.90;;;;;;2089664;68;20658;-70
2021/12/05 11:23:18;;;;;;;18.73;10.35;;;4.80;99.90;;;;;;2082949;68;20173;-71
2021/12/05 11:26:35;;;;;;;20.45;11.60;;;4.90;99.90;;;;;;2075309;69;20367;-68
2021/12/05 11:29:20;;;;;;;18.67;10.65;;;4.90;99.90;;;;;;2073028;68;20349;-68
2021/12/05 11:32:07;;;;;;;24.83;11.50;;;5.00;99.90;;;;;;2055604;69;20299;-71
2021/12/05 11:34:49;;;;;;;21.95;11.48;;;5.00;99.90;;;;;;2067265;69;20257;-70
2021/12/05 11:37:50;;;;;;;21.67;11.52;;;5.00;99.90;;;;;;2058430;69;20194;-71
2021/12/05 11:40:48;;;;;;;18.60;10.23;;;5.10;99.90;;;;;;2060029;69;20178;-69
2021/12/05 11:43:39;;;;;;;25.08;10.82;;;5.10;99.90;;;;;;2068838;68;20213;-71
2021/12/05 11:46:27;;;;;;;16.75;11.23;;;5.10;99.90;;;;;;2090348;68;20282;-69
2021/12/05 11:49:17;;;;;;;21.05;11.18;;;5.20;99.90;;;;;;2093205;68;20630;-68
2021/12/05 11:52:22;;;;;;;17.58;11.25;;;5.20;99.90;;;;;;2095696;68;20293;-70
2021/12/05 11:55:20;;;;;;;21.77;10.45;;;5.20;99.90;;;;;;2090196;68;20211;-71
2021/12/05 11:58:18;;;;;;;20.65;11.25;;;5.30;99.90;;;;;;2088846;68;20281;-69
2021/12/05 12:01:09;;;;;;;20.20;11.48;;;5.30;99.90;;;;;;2099896;67;20412;-68
2021/12/05 12:03:55;;;;;;;17.73;11.77;;;5.40;99.90;;;;;;2109333;67;20309;-70
2021/12/05 12:06:39;;;;;;;20.38;10.98;;;5.50;99.90;;;;;;2098216;68;20340;-68
2021/12/05 12:09:23;;;;;;;17.92;9.98;;;5.50;99.90;;;;;;2087314;68;20289;-69
2021/12/05 12:12:06;;;;;;;17.75;11.57;;;5.70;99.90;;;;;;2087753;68;20338;-69
2021/12/05 12:14:48;;;;;;;21.10;11.40;;;5.60;99.90;;;;;;2078891;68;20294;-69
2021/12/05 12:17:30;;;;;;;16.85;10.05;;;5.70;99.90;;;;;;2084645;68;20273;-69
2021/12/05 12:20:16;;;;;;;13.85;9.57;;;5.70;99.90;;;;;;2085864;68;20341;-69
2021/12/05 12:22:58;;;;;;;21.33;11.10;;;5.70;99.90;;;;;;2070684;68;20216;-69
2021/12/05 12:25:41;;;;;;;16.52;11.10;;;5.70;99.90;;;;;;2061927;69;20322;-68
2021/12/05 12:28:24;;;;;;;16.83;10.68;;;5.80;99.90;;;;;;2066371;69;20181;-68
2021/12/05 12:31:21;;;;;;;20.42;12.10;;;5.80;99.90;;;;;;2074482;68;20243;-69
2021/12/05 12:34:15;;;;;;;18.88;11.13;;;5.80;99.90;;;;;;2096484;68;20365;-69
2021/12/05 12:37:03;;;;;;;14.43;9.82;;;6.40;99.90;;;;;;2098791;67;20177;-68
2021/12/05 12:39:49;;;;;;;17.02;10.23;;;6.00;99.90;;;;;;2104647;67;20358;-68
2021/12/05 12:42:39;;;;;;;15.45;10.20;;;6.00;99.90;;;;;;2099967;67;20634;-68
2021/12/05 12:45:25;;;;;;;15.68;10.18;;;6.10;99.90;;;;;;2105184;67;20647;-68
2021/12/05 12:48:12;;;;;;;15.98;11.65;;;6.10;99.90;;;;;;2099147;68;20356;-69
2021/12/05 12:50:54;;;;;;;15.45;9.07;;;6.20;99.90;;;;;;2090606;68;20761;-70
2021/12/05 12:53:38;;;;;;;14.55;8.50;;;6.20;99.90;;;;;;2102543;67;20313;-71
2021/12/05 12:56:22;;;;;;;17.65;9.18;;;6.10;99.90;;;;;;2093559;68;20205;-70
2021/12/05 12:59:28;;;;;;;11.15;8.32;;;6.10;99.90;;;;;;2085351;68;20185;-70
2021/12/05 13:02:27;;;;;;;18.23;8.73;;;6.20;99.90;;;;;;2094302;68;20339;-68
2021/12/05 13:05:22;;;;;;;15.45;8.85;;;6.20;99.90;;;;;;2098345;68;20222;-69
2021/12/05 13:11:23;;;;;;;14.18;8.75;;;6.10;99.90;;;;;;2089772;68;20205;-70
2021/12/05 13:14:09;;;;;;;14.63;8.18;;;6.20;99.90;;;;;;2093903;68;20575;-69
2021/12/05 13:16:57;;;;;;;;;;;6.10;99.90;;;;;;2088204;68;20384;-69
2021/12/05 13:19:57;;;;;;;12.48;8.32;;;6.10;99.90;;;;;;2097938;68;20108;-69
2021/12/05 13:23:10;;;;;;;13.23;8.13;;;6.10;99.90;;;;;;2096596;68;20431;-69
2021/12/05 13:26:21;;;;;;;15.27;8.55;;;6.00;99.90;;;;;;2112979;67;20433;-70
2021/12/05 13:29:23;;;;;;;13.82;8.68;;;6.10;99.90;;;;;;2124004;67;20415;-70
2021/12/05 13:32:16;;;;;;;14.77;8.35;;;6.10;99.90;;;;;;2109990;67;20185;-69
2021/12/05 13:35:34;;;;;;;16.58;9.80;;;6.10;99.90;;;;;;2103288;67;20263;-70
2021/12/05 13:38:33;;;;;;;15.93;9.02;;;6.20;99.90;;;;;;2089029;68;20793;-69
2021/12/05 13:41:19;;;;;;;14.15;8.02;;;6.40;99.90;;;;;;2094498;68;20716;-71
2021/12/05 13:44:02;;;;;;;12.70;7.72;;;6.50;99.90;;;;;;2109864;67;20848;-69
2021/12/05 13:46:45;;;;;;;14.10;7.50;;;6.50;99.90;;;;;;2110453;67;20354;-70
2021/12/05 13:49:31;;;;;;;11.50;8.40;;;6.60;99.90;;;;;;2102579;68;20285;-69
2021/12/05 13:52:31;;;;;;;;;;;6.60;99.90;;;;;;2103053;67;20194;-69
2021/12/05 13:56:02;;;;;;;15.25;8.85;;;6.60;99.90;;;;;;2104639;67;20565;-69
2021/12/05 13:58:48;;;;;;;11.85;7.45;;;6.50;99.90;;;;;;2102768;67;20366;-69
2021/12/05 14:01:49;;;;;;;10.23;7.97;;;6.50;99.90;;;;;;2110909;67;20404;-70
2021/12/05 14:04:34;;;;;;;13.85;7.82;;;6.40;99.90;;;;;;2095580;68;20203;-73
2021/12/05 14:07:19;;;;;;;9.15;6.80;;;6.30;99.90;;;;;;2109058;67;20326;-70
2021/12/05 14:10:01;;;;;;;10.55;7.03;;;6.30;99.90;;;;;;2086637;68;20342;-68
2021/12/05 14:12:43;;;;;;;11.10;7.57;;;6.20;99.90;;;;;;2074706;69;20192;-68
2021/12/05 14:15:25;;;;;;;12.13;8.10;;;6.20;99.90;;;;;;2079206;68;20429;-68
2021/12/05 14:18:06;;;;;;;12.82;8.38;;;6.10;99.90;;;;;;2091580;68;20222;-69
2021/12/05 14:20:48;;;;;;;17.55;8.73;;;6.20;99.90;;;;;;2073305;68;20860;-69
2021/12/05 14:23:30;;;;;;;11.38;7.38;;;6.30;99.90;;;;;;2073199;68;20350;-71
2021/12/05 14:26:19;;;;;;;12.45;7.78;;;6.00;99.90;;;;;;2076955;68;20362;-69
2021/12/05 14:29:06;;;;;;;15.43;8.90;;;6.00;99.90;;;;;;2082647;68;20384;-70
2021/12/05 14:32:09;;;;;;;14.50;8.35;;;5.90;99.90;;;;;;2071612;68;20314;-71
2021/12/05 14:34:54;;;;;;;18.55;9.77;;;5.90;99.90;;;;;;2069251;69;20356;-69
2021/12/05 14:37:40;;;;;;;13.15;8.90;;;5.90;99.90;;;;;;2062127;69;20259;-69
2021/12/05 14:40:32;;;;;;;18.95;9.88;;;5.90;99.90;;;;;;2077213;68;20187;-68
2021/12/05 14:43:21;;;;;;;16.33;10.02;;;5.80;99.90;;;;;;2073946;69;20197;-68
2021/12/05 14:46:06;;;;;;;18.23;9.27;;;5.80;99.90;;;;;;2066620;68;20253;-69
2021/12/05 14:49:13;;;;;;;14.57;9.57;;;5.80;99.90;;;;;;2072613;68;20272;-70
2021/12/05 14:51:58;;;;;;;14.77;10.52;;;5.80;99.90;;;;;;2082256;68;20504;-70
2021/12/05 14:54:43;;;;;;;17.83;10.52;;;5.70;99.90;;;;;;2080927;68;20937;-68
2021/12/05 14:57:28;;;;;;;16.35;11.30;;;5.80;99.90;;;;;;2089674;68;20331;-72
2021/12/05 15:00:32;;;;;;;19.27;11.07;;;5.70;99.90;;;;;;2106167;67;20252;-71
2021/12/05 15:03:23;;;;;;;16.67;10.52;;;5.60;99.90;;;;;;2107471;67;20623;-71
2021/12/05 15:06:09;;;;;;;22.75;11.25;;;5.60;99.90;;;;;;2102647;67;20312;-71
2021/12/05 15:08:52;;;;;;;17.75;10.50;;;5.60;99.90;;;;;;2106088;67;20220;-71
2021/12/05 15:11:37;;;;;;;20.88;11.27;;;5.50;99.90;;;;;;2105875;67;20327;-71
2021/12/05 15:14:19;;;;;;;18.77;12.25;;;5.50;99.90;;;;;;2099600;67;20248;-71
2021/12/05 15:17:15;;;;;;;20.65;11.27;;;6.10;99.90;;;;;;2099868;67;20437;-70
2021/12/05 15:20:16;;;;;;;18.75;11.35;;;5.40;99.90;;;;;;2097131;67;20183;-72
2021/12/05 15:23:08;;;;;;;18.80;11.57;;;5.40;99.90;;;;;;2103869;67;20398;-71
2021/12/05 15:25:54;;;;;;;17.52;11.43;;;5.40;99.90;;;;;;2101834;67;20193;-71
2021/12/05 15:28:40;;;;;;;19.15;12.52;;;5.30;99.90;;;;;;2089570;68;20725;-70
2021/12/05 15:31:34;;;;;;;20.20;12.77;;;5.40;99.90;;;;;;2104776;67;20364;-73
2021/12/05 15:34:25;;;;;;;21.00;13.30;;;5.20;99.90;;;;;;2114872;67;20598;-71
2021/12/05 15:37:12;;;;;;;20.63;13.38;;;5.20;99.90;;;;;;2107589;67;20702;-72
2021/12/05 15:39:57;;;;;;;26.35;14.52;;;5.20;99.90;;;;;;2110835;67;20629;-72
2021/12/05 15:42:41;;;;;;;21.75;12.98;;;5.10;99.90;;;;;;2100670;67;20864;-71
2021/12/05 15:45:23;;;;;;;21.67;13.07;;;5.10;99.90;;;;;;2096560;68;20376;-72
2021/12/05 15:48:11;;;;;;;21.20;12.52;;;5.10;99.90;;;;;;2090300;68;20370;-72
2021/12/05 15:50:54;;;;;;;25.33;13.68;;;5.10;99.90;;;;;;2073826;68;20198;-71
2021/12/05 15:53:46;;;;;;;26.67;14.07;;;5.10;99.90;;;;;;2086848;68;20216;-72
2021/12/05 15:56:35;;;;;;;23.73;13.68;;;5.10;99.90;;;;;;2087807;68;20180;-72
2021/12/05 15:59:25;;;;;;;24.80;15.10;;;5.00;99.90;;;;;;2091768;68;20183;-72
2021/12/05 16:02:11;;;;;;;23.80;14.68;;;5.10;99.90;;;;;;2106205;67;20169;-72
2021/12/05 16:04:56;;;;;;;27.88;16.25;;;5.20;99.90;;;;;;2104831;67;20337;-71
2021/12/05 16:07:38;;;;;;;24.55;15.77;;;5.00;99.90;;;;;;2113852;67;20165;-73
2021/12/05 16:10:23;;;;;;;26.98;16.98;;;5.00;99.90;;;;;;2105231;67;20418;-72
2021/12/05 16:13:25;;;;;;;25.30;16.70;;;5.00;99.90;;;;;;2098341;67;20692;-72
2021/12/05 16:16:21;;;;;;;34.00;17.90;;;5.00;99.90;;;;;;2111047;67;20705;-71
2021/12/05 16:19:13;;;;;;;26.02;16.40;;;5.00;99.90;;;;;;2103972;67;20290;-72
2021/12/05 16:22:01;;;;;;;26.25;17.15;;;5.00;99.90;;;;;;2107274;67;20574;-72
2021/12/05 16:24:46;;;;;;;26.52;15.95;;;5.00;99.90;;;;;;2112162;67;20327;-72
2021/12/05 16:27:29;;;;;;;23.83;16.23;;;5.00;99.90;;;;;;2113676;67;20281;-72
2021/12/05 16:30:24;;;;;;;28.10;17.52;;;5.00;99.90;;;;;;2110457;67;20500;-74
2021/12/05 16:33:09;;;;;;;28.48;16.90;;;5.00;99.90;;;;;;2114554;67;20200;-71
2021/12/05 16:35:53;;;;;;;27.30;16.65;;;5.40;99.90;;;;;;2110602;67;20410;-71
2021/12/05 16:38:43;;;;;;;30.25;17.80;;;4.90;99.90;;;;;;2113420;67;20417;-71
2021/12/05 16:41:33;;;;;;;30.75;18.02;;;4.90;99.90;;;;;;2112123;67;20174;-72
2021/12/05 16:44:40;;;;;;;27.42;17.50;;;4.90;99.90;;;;;;2112674;67;20348;-72
2021/12/05 16:47:24;;;;;;;27.20;17.80;;;4.90;99.90;;;;;;2102310;67;20206;-71
2021/12/05 16:50:10;;;;;;;29.10;17.67;;;4.90;99.90;;;;;;2085947;68;20317;-71
2021/12/05 16:52:54;;;;;;;26.75;17.95;;;4.90;99.90;;;;;;2089355;68;20400;-72
2021/12/05 16:55:41;;;;;;;27.40;17.67;;;5.10;99.90;;;;;;2104577;67;20271;-72
2021/12/05 16:58:23;;;;;;;30.92;18.50;;;5.00;99.90;;;;;;2094873;68;20264;-71
2021/12/05 17:01:10;;;;;;;27.88;19.23;;;4.90;99.90;;;;;;2100028;68;20204;-72
2021/12/05 17:03:55;;;;;;;32.40;18.90;;;4.90;99.90;;;;;;2094772;68;20237;-72
2021/12/05 17:06:47;;;;;;;35.47;19.33;;;4.90;99.90;;;;;;2095245;67;20907;-71
2021/12/05 17:09:39;;;;;;;28.73;18.45;;;4.90;99.90;;;;;;2081249;68;20683;-71
2021/12/05 17:12:30;;;;;;;29.35;19.10;;;4.90;99.90;;;;;;2084011;68;20247;-72
2021/12/05 17:15:18;;;;;;;30.50;18.15;;;4.90;99.90;;;;;;2091016;68;20243;-72
2021/12/05 17:18:03;;;;;;;30.55;18.60;;;4.80;99.90;;;;;;2084158;68;20573;-72
2021/12/05 17:20:58;;;;;;;27.42;18.52;;;4.80;99.90;;;;;;2077394;68;20221;-71
2021/12/05 17:23:53;;;;;;;27.38;18.85;;;4.70;99.90;;;;;;2072598;68;20860;-72
2021/12/05 17:27:06;;;;;;;29.35;19.40;;;4.60;99.90;;;;;;2077142;68;20194;-72
2021/12/05 17:29:52;;;;;;;32.28;19.15;;;4.50;99.90;;;;;;2073530;68;20192;-71
2021/12/05 17:32:36;;;;;;;30.23;19.45;;;4.40;99.90;;;;;;2077968;68;20258;-71
2021/12/05 17:35:20;;;;;;;32.03;20.08;;;4.40;99.90;;;;;;2089605;68;20565;-71
2021/12/05 17:38:03;;;;;;;34.55;20.65;;;4.30;99.90;;;;;;2089391;68;20201;-71
2021/12/05 17:40:45;;;;;;;27.58;18.15;;;4.30;99.90;;;;;;2086525;68;20247;-72
2021/12/05 17:43:27;;;;;;;28.70;18.75;;;4.40;99.90;;;;;;2088266;68;20384;-72
2021/12/05 17:46:09;;;;;;;32.47;20.75;;;4.30;99.90;;;;;;2085605;68;20406;-71
2021/12/05 17:48:50;;;;;;;34.83;18.77;;;4.30;99.90;;;;;;2093723;68;20239;-71
2021/12/05 17:51:37;;;;;;;29.63;18.00;;;4.30;99.90;;;;;;2093755;68;20650;-71
2021/12/05 17:54:30;;;;;;;29.92;18.63;;;4.60;99.90;;;;;;2094243;67;20424;-72
2021/12/05 17:57:20;;;;;;;31.65;20.27;;;4.40;99.90;;;;;;2105858;67;20182;-72
2021/12/05 18:03:15;;;;;;;34.53;18.90;;;4.20;99.90;;;;;;2114763;67;20677;-71
2021/12/05 18:05:58;;;;;;;29.42;18.63;;;4.20;99.90;;;;;;2106901;67;20421;-73
2021/12/05 18:08:42;;;;;;;28.45;17.55;;;4.60;99.90;;;;;;2104673;67;20839;-71
2021/12/05 18:11:25;;;;;;;24.17;17.30;;;4.30;99.90;;;;;;2110114;67;20186;-72
2021/12/05 18:14:07;;;;;;;27.42;17.98;;;4.30;99.90;;;;;;2107225;67;20582;-72
2021/12/05 18:16:49;;;;;;;26.90;17.67;;;4.30;99.90;;;;;;2107900;67;20364;-72
2021/12/05 18:19:31;;;;;;;27.85;17.95;;;4.30;99.90;;;;;;2103132;67;20553;-71
2021/12/05 18:22:13;;;;;;;26.00;17.15;;;4.80;99.90;;;;;;2100815;67;20260;-71
2021/12/05 18:24:57;;;;;;;27.35;15.52;;;4.30;99.90;;;;;;2104936;67;20272;-71
2021/12/05 18:27:40;;;;;;;23.38;14.25;;;4.30;99.90;;;;;;2099727;67;20718;-71
2021/12/05 18:30:25;;;;;;;24.17;13.95;;;4.30;99.90;;;;;;2088240;68;20201;-72
2021/12/05 18:33:13;;;;;;;27.90;14.50;;;4.40;99.90;;;;;;2082172;68;20252;-71
2021/12/05 18:35:55;;;;;;;25.40;16.65;;;4.30;99.90;;;;;;2082056;68;20333;-72
2021/12/05 18:38:38;;;;;;;28.10;18.58;;;4.30;99.90;;;;;;2069004;69;20661;-72
2021/12/05 18:41:21;;;;;;;28.73;18.70;;;4.30;99.90;;;;;;2069627;69;20276;-72
2021/12/05 18:44:16;;;;;;;27.77;18.42;;;3.90;99.90;;;;;;2075993;68;20330;-72
2021/12/05 18:46:58;;;;;;;26.98;17.65;;;4.20;99.90;;;;;;2067394;68;20381;-72
2021/12/05 18:49:41;;;;;;;29.40;17.73;;;4.20;99.90;;;;;;2083317;68;20240;-72
2021/12/05 18:52:26;;;;;;;28.48;18.38;;;4.20;99.90;;;;;;2097059;68;20634;-72
2021/12/05 18:55:12;;;;;;;24.27;17.90;;;4.20;99.90;;;;;;2091124;68;20673;-71
2021/12/05 18:57:55;;;;;;;;;;;4.20;99.90;;;;;;2089658;68;20350;-72
2021/12/05 19:07:32;;;;;;;27.00;17.75;;;4.20;99.90;;;;;;2099357;67;20290;-71
2021/12/05 19:13:16;;;;;;;28.30;18.48;;;4.20;99.90;;;;;;2103507;67;20359;-70
2021/12/05 19:15:58;;;;;;;30.27;21.15;;;4.10;99.90;;;;;;2098070;67;20387;-71
2021/12/05 19:18:40;;;;;;;28.75;19.52;;;4.10;99.90;;;;;;2099595;68;20218;-71
2021/12/05 19:21:22;;;;;;;27.95;18.70;;;4.10;99.90;;;;;;2098104;68;20864;-71
2021/12/05 19:24:06;;;;;;;30.35;20.45;;;4.10;99.90;;;;;;2101069;68;20279;-71
2021/12/05 19:26:51;;;;;;;28.35;19.30;;;4.10;99.90;;;;;;2101373;67;20673;-71
2021/12/05 19:29:38;;;;;;;28.55;18.85;;;4.10;99.90;;;;;;2115464;67;20275;-72
2021/12/05 19:32:24;;;;;;;25.88;18.55;;;4.80;99.90;;;;;;2126617;67;20691;-71
2021/12/05 19:35:10;;;;;;;24.83;16.92;;;4.10;99.90;;;;;;2123204;67;20201;-71
2021/12/05 19:37:54;;;;;;;23.60;16.77;;;4.10;99.90;;;;;;2126255;67;20264;-72
2021/12/05 19:40:41;;;;;;;24.58;17.50;;;4.00;99.90;;;;;;2124491;67;20235;-72
2021/12/05 19:43:28;;;;;;;28.33;17.58;;;4.10;99.90;;;;;;2132211;67;20205;-72
2021/12/05 19:46:13;;;;;;;27.25;17.73;;;4.10;99.90;;;;;;2124706;67;20195;-72
2021/12/05 19:48:56;;;;;;;23.25;15.75;;;4.00;99.90;;;;;;2116827;67;20229;-72
2021/12/05 19:51:38;;;;;;;25.35;16.35;;;4.50;99.90;;;;;;2110716;67;20308;-71